createdAt,value
2023-02-17T00:00:05.600Z,42.85
2023-02-17T00:02:32.272Z,42.88
2023-02-17T00:04:58.936Z,42.87
2023-02-17T00:07:25.589Z,42.90
2023-02-17T00:09:52.452Z,42.85
2023-02-17T00:12:19.095Z,42.91
2023-02-17T00:14:45.737Z,42.93
2023-02-17T00:17:12.376Z,42.90
2023-02-17T00:19:39.013Z,42.97
2023-02-17T00:22:05.642Z,42.93
2023-02-17T00:24:32.305Z,42.93
2023-02-17T00:26:58.969Z,42.91
2023-02-17T00:29:25.704Z,42.95
2023-02-17T00:31:52.672Z,42.98
2023-02-17T00:34:19.371Z,42.93
2023-02-17T00:36:46.045Z,42.90
2023-02-17T00:39:12.708Z,43.00
2023-02-17T00:41:39.366Z,42.99
2023-02-17T00:44:06.026Z,42.98
2023-02-17T00:46:32.932Z,43.05
2023-02-17T00:48:59.609Z,42.98
2023-02-17T00:51:26.467Z,43.03
2023-02-17T00:53:53.326Z,42.98
2023-02-17T00:56:19.960Z,43.03
2023-02-17T00:58:46.589Z,43.10
2023-02-17T01:01:13.430Z,43.02
2023-02-17T01:03:40.056Z,43.10
2023-02-17T01:06:06.932Z,43.02
2023-02-17T01:08:33.725Z,43.06
2023-02-17T01:11:00.381Z,43.06
2023-02-17T01:13:27.020Z,43.07
2023-02-17T01:15:53.681Z,43.13
2023-02-17T01:18:20.597Z,43.06
2023-02-17T01:20:47.274Z,43.10
2023-02-17T01:23:13.912Z,43.13
2023-02-17T01:25:40.784Z,43.12
2023-02-17T01:28:07.584Z,43.13
2023-02-17T01:30:34.241Z,43.17
2023-02-17T01:33:01.081Z,43.15
2023-02-17T01:35:27.741Z,43.18
2023-02-17T01:37:54.593Z,43.13
2023-02-17T01:40:21.239Z,43.17
2023-02-17T01:42:47.872Z,43.14
2023-02-17T01:45:14.724Z,43.18
2023-02-17T01:47:41.347Z,43.20
2023-02-17T01:50:07.968Z,43.14
2023-02-17T01:52:34.600Z,43.16
2023-02-17T01:55:01.441Z,43.19
2023-02-17T01:57:28.077Z,43.24
2023-02-17T01:59:54.741Z,43.20
2023-02-17T02:02:21.441Z,43.24
2023-02-17T02:04:48.180Z,43.22
2023-02-17T02:07:14.839Z,43.32
2023-02-17T02:09:41.469Z,43.31
2023-02-17T02:12:08.104Z,43.31
2023-02-17T02:14:34.715Z,43.35
2023-02-17T02:17:01.532Z,43.27
2023-02-17T02:19:28.150Z,43.37
2023-02-17T02:21:54.750Z,43.28
2023-02-17T02:24:21.377Z,43.39
2023-02-17T02:26:48.212Z,43.31
2023-02-17T02:29:14.823Z,43.39
2023-02-17T02:31:41.706Z,43.36
2023-02-17T02:34:08.331Z,43.40
2023-02-17T02:36:35.179Z,43.38
2023-02-17T02:39:02.029Z,43.34
2023-02-17T02:41:28.684Z,43.45
2023-02-17T02:43:55.322Z,43.45
2023-02-17T02:46:21.959Z,43.36
2023-02-17T02:48:48.755Z,43.43
2023-02-17T02:51:15.341Z,43.39
2023-02-17T02:53:41.967Z,43.37
2023-02-17T02:56:08.613Z,43.40
2023-02-17T02:58:35.231Z,43.35
2023-02-17T03:01:01.913Z,43.41
2023-02-17T03:03:28.795Z,43.41
2023-02-17T03:05:55.409Z,43.51
2023-02-17T03:08:22.256Z,43.42
2023-02-17T03:10:48.902Z,43.47
2023-02-17T03:13:15.749Z,43.44
2023-02-17T03:15:42.373Z,43.48
2023-02-17T03:18:09.204Z,43.49
2023-02-17T03:20:35.861Z,43.45
2023-02-17T03:23:02.904Z,43.50
2023-02-17T03:25:29.526Z,43.45
2023-02-17T03:27:56.366Z,43.54
2023-02-17T03:30:23.075Z,43.48
2023-02-17T03:32:49.961Z,43.50
2023-02-17T03:35:16.597Z,43.64
2023-02-17T03:37:43.237Z,43.56
2023-02-17T03:40:10.110Z,43.69
2023-02-17T03:42:36.745Z,43.70
2023-02-17T03:45:03.965Z,43.55
2023-02-17T03:47:30.616Z,43.64
2023-02-17T03:49:57.473Z,43.69
2023-02-17T03:52:24.139Z,43.64
2023-02-17T03:54:50.768Z,43.64
2023-02-17T03:57:17.392Z,43.71
2023-02-17T03:59:44.017Z,43.74
2023-02-17T04:02:10.635Z,43.70
2023-02-17T04:04:37.263Z,43.66
2023-02-17T04:07:04.103Z,43.68
2023-02-17T04:09:30.735Z,43.71
2023-02-17T04:11:57.355Z,43.79
2023-02-17T04:14:23.959Z,43.71
2023-02-17T04:16:50.601Z,43.82
2023-02-17T04:19:17.583Z,43.72
2023-02-17T04:21:44.943Z,43.78
2023-02-17T04:24:11.576Z,43.77
2023-02-17T04:26:38.221Z,43.82
2023-02-17T04:29:05.110Z,43.76
2023-02-17T04:31:31.841Z,43.77
2023-02-17T04:33:58.518Z,43.76
2023-02-17T04:36:25.133Z,43.72
2023-02-17T04:38:51.782Z,43.80
2023-02-17T04:41:18.400Z,43.76
2023-02-17T04:43:45.018Z,43.72
2023-02-17T04:46:11.656Z,43.80
2023-02-17T04:48:38.342Z,43.81
2023-02-17T04:51:04.966Z,43.74
2023-02-17T04:53:31.609Z,43.81
2023-02-17T04:55:58.224Z,43.71
2023-02-17T04:58:24.848Z,43.79
2023-02-17T05:00:51.488Z,43.85
2023-02-17T05:03:18.149Z,43.78
2023-02-17T05:05:44.784Z,43.84
2023-02-17T05:08:11.419Z,43.79
2023-02-17T05:10:38.237Z,43.80
2023-02-17T05:13:04.853Z,43.85
2023-02-17T05:15:33.772Z,43.76
2023-02-17T05:18:01.420Z,43.91
2023-02-17T05:20:28.322Z,43.80
2023-02-17T05:22:54.988Z,43.85
2023-02-17T05:25:21.616Z,43.83
2023-02-17T05:27:48.271Z,43.83
2023-02-17T05:30:14.961Z,43.85
2023-02-17T05:32:41.813Z,43.81
2023-02-17T05:35:08.435Z,43.86
2023-02-17T05:37:35.275Z,43.87
2023-02-17T05:40:01.891Z,43.79
2023-02-17T05:42:28.763Z,43.92
2023-02-17T05:44:55.426Z,43.81
2023-02-17T05:47:22.057Z,43.92
2023-02-17T05:49:48.694Z,43.85
2023-02-17T05:52:15.543Z,43.81
2023-02-17T05:54:42.169Z,43.86
2023-02-17T05:57:08.985Z,43.87
2023-02-17T05:59:35.833Z,43.81
2023-02-17T06:02:04.198Z,43.89
2023-02-17T06:04:30.850Z,43.89
2023-02-17T06:06:57.504Z,43.85
2023-02-17T06:09:24.363Z,43.94
2023-02-17T06:11:51.003Z,43.94
2023-02-17T06:14:17.624Z,44.01
2023-02-17T06:16:44.258Z,43.96
2023-02-17T06:19:10.901Z,43.95
2023-02-17T06:21:37.556Z,43.97
2023-02-17T06:24:04.182Z,43.95
2023-02-17T06:26:31.016Z,43.94
2023-02-17T06:28:57.632Z,43.88
2023-02-17T06:31:24.407Z,44.01
2023-02-17T06:33:51.095Z,43.94
2023-02-17T06:36:17.707Z,44.03
2023-02-17T06:38:44.345Z,44.02
2023-02-17T06:41:10.963Z,44.00
2023-02-17T06:43:37.578Z,44.02
2023-02-17T06:46:04.582Z,43.93
2023-02-17T06:48:31.332Z,43.96
2023-02-17T06:50:57.955Z,44.00
2023-02-17T06:53:24.612Z,43.98
2023-02-17T06:55:51.238Z,44.02
2023-02-17T06:58:18.088Z,44.02
2023-02-17T07:00:44.695Z,44.01
2023-02-17T07:03:11.657Z,44.02
2023-02-17T07:05:38.317Z,43.97
2023-02-17T07:08:06.200Z,44.06
2023-02-17T07:10:32.825Z,44.02
2023-02-17T07:12:59.487Z,44.01
2023-02-17T07:15:26.113Z,44.02
2023-02-17T07:17:52.734Z,44.00
2023-02-17T07:20:19.394Z,44.04
2023-02-17T07:22:46.021Z,43.98
2023-02-17T07:25:13.093Z,44.05
2023-02-17T07:27:39.729Z,43.98
2023-02-17T07:30:06.423Z,44.07
2023-02-17T07:32:33.564Z,44.03
2023-02-17T07:35:00.205Z,44.01
2023-02-17T07:37:27.353Z,44.04
2023-02-17T07:39:54.724Z,43.98
2023-02-17T07:42:21.377Z,44.09
2023-02-17T07:44:48.008Z,44.06
2023-02-17T07:47:14.621Z,44.09
2023-02-17T07:49:41.774Z,44.03
2023-02-17T07:52:08.998Z,44.04
2023-02-17T07:54:35.616Z,44.09
2023-02-17T07:57:02.241Z,44.11
2023-02-17T07:59:28.916Z,44.09
2023-02-17T08:01:55.836Z,44.06
2023-02-17T08:04:22.495Z,44.12
2023-02-17T08:06:49.187Z,44.16
2023-02-17T08:09:15.809Z,44.16
2023-02-17T08:11:44.134Z,44.11
2023-02-17T08:14:13.190Z,44.19
2023-02-17T08:16:41.339Z,44.18
2023-02-17T08:19:08.058Z,44.12
2023-02-17T08:21:34.705Z,44.22
2023-02-17T08:24:01.323Z,44.09
2023-02-17T08:26:27.966Z,44.17
2023-02-17T08:28:55.079Z,44.21
2023-02-17T08:31:21.752Z,44.15
2023-02-17T08:33:48.414Z,44.22
2023-02-17T08:36:15.042Z,44.18
2023-02-17T08:38:41.674Z,44.16
2023-02-17T08:41:08.285Z,44.21
2023-02-17T08:43:34.894Z,44.20
2023-02-17T08:46:01.636Z,44.24
2023-02-17T08:48:28.353Z,44.28
2023-02-17T08:50:55.923Z,44.20
2023-02-17T08:53:22.601Z,44.28
2023-02-17T08:55:49.962Z,44.11
2023-02-17T08:58:16.701Z,44.19
2023-02-17T09:00:43.417Z,44.17
2023-02-17T09:03:10.663Z,44.24
2023-02-17T09:05:37.284Z,44.25
2023-02-17T09:08:03.963Z,44.20
2023-02-17T09:10:30.595Z,44.26
2023-02-17T09:12:57.972Z,44.19
2023-02-17T09:15:24.591Z,44.31
2023-02-17T09:17:51.748Z,44.17
2023-02-17T09:20:24.785Z,44.22
2023-02-17T09:22:52.496Z,44.24
2023-02-17T09:25:19.282Z,44.24
2023-02-17T09:27:46.138Z,44.38
2023-02-17T09:30:15.683Z,44.35
2023-02-17T09:32:42.325Z,44.34
2023-02-17T09:35:09.849Z,44.33
2023-02-17T09:37:36.511Z,44.32
2023-02-17T09:40:04.060Z,44.31
2023-02-17T09:42:30.725Z,44.31
2023-02-17T09:44:57.391Z,44.34
2023-02-17T09:47:24.072Z,44.26
2023-02-17T09:49:50.734Z,44.46
2023-02-17T09:52:17.377Z,44.35
2023-02-17T09:54:43.996Z,44.35
2023-02-17T09:57:10.640Z,44.42
2023-02-17T09:59:37.289Z,44.30
2023-02-17T10:02:03.899Z,44.42
2023-02-17T10:04:30.637Z,44.34
2023-02-17T10:06:57.462Z,44.40
2023-02-17T10:09:24.102Z,44.36
2023-02-17T10:11:50.784Z,44.40
2023-02-17T10:14:17.701Z,44.42
2023-02-17T10:16:44.598Z,44.42
2023-02-17T10:19:11.249Z,44.44
2023-02-17T10:21:38.181Z,44.36
2023-02-17T10:24:05.030Z,44.34
2023-02-17T10:26:31.777Z,44.19
2023-02-17T10:28:58.451Z,44.27
2023-02-17T10:31:25.241Z,44.31
2023-02-17T10:33:52.021Z,44.26
2023-02-17T10:36:18.709Z,44.29
2023-02-17T10:38:45.372Z,44.30
2023-02-17T10:41:11.980Z,44.23
2023-02-17T10:43:38.643Z,44.29
2023-02-17T10:46:05.489Z,44.30
2023-02-17T10:48:32.300Z,44.32
2023-02-17T10:50:58.931Z,44.39
2023-02-17T10:53:25.565Z,44.33
2023-02-17T10:55:52.207Z,44.39
2023-02-17T10:58:19.056Z,44.32
2023-02-17T11:00:45.712Z,44.43
2023-02-17T11:03:12.353Z,44.46
2023-02-17T11:05:38.994Z,44.40
2023-02-17T11:08:05.607Z,44.50
2023-02-17T11:10:32.236Z,44.38
2023-02-17T11:12:58.881Z,44.41
2023-02-17T11:15:25.517Z,44.42
2023-02-17T11:17:52.168Z,44.44
2023-02-17T11:20:19.005Z,44.50
2023-02-17T11:22:45.684Z,44.53
2023-02-17T11:25:12.339Z,44.61
2023-02-17T11:27:38.981Z,44.52
2023-02-17T11:30:05.657Z,44.63
2023-02-17T11:32:32.300Z,44.60
2023-02-17T11:34:58.913Z,44.55
2023-02-17T11:37:25.548Z,44.59
2023-02-17T11:39:52.189Z,44.52
2023-02-17T11:42:18.847Z,44.62
2023-02-17T11:44:45.717Z,44.66
2023-02-17T11:47:12.362Z,44.66
2023-02-17T11:49:38.979Z,44.62
2023-02-17T11:52:05.628Z,44.57
2023-02-17T11:54:32.244Z,44.76
2023-02-17T11:56:58.855Z,44.70
2023-02-17T11:59:25.479Z,44.71
2023-02-17T12:01:52.335Z,44.78
2023-02-17T12:04:18.945Z,44.69
2023-02-17T12:06:45.584Z,44.65
2023-02-17T12:09:12.251Z,44.68
2023-02-17T12:11:38.888Z,44.68
2023-02-17T12:14:05.523Z,44.66
2023-02-17T12:16:32.261Z,44.59
2023-02-17T12:18:58.902Z,44.59
2023-02-17T12:21:25.514Z,44.68
2023-02-17T12:23:52.136Z,44.56
2023-02-17T12:26:18.742Z,44.64
2023-02-17T12:28:45.577Z,44.57
2023-02-17T12:31:12.328Z,44.57
2023-02-17T12:33:39.099Z,44.61
2023-02-17T12:36:05.928Z,44.58
2023-02-17T12:38:32.737Z,44.70
2023-02-17T12:40:59.364Z,44.67
2023-02-17T12:43:25.964Z,44.63
2023-02-17T12:45:52.632Z,44.69
2023-02-17T12:48:19.490Z,44.59
2023-02-17T12:50:46.146Z,44.71
2023-02-17T12:53:12.775Z,44.64
2023-02-17T12:55:39.416Z,44.76
2023-02-17T12:58:06.070Z,44.60
2023-02-17T13:00:32.719Z,44.66
2023-02-17T13:02:59.353Z,44.61
2023-02-17T13:05:25.986Z,44.61
2023-02-17T13:07:52.627Z,44.62
2023-02-17T13:10:19.256Z,44.56
2023-02-17T13:12:45.924Z,44.60
2023-02-17T13:15:12.577Z,44.58
2023-02-17T13:17:39.192Z,44.60
2023-02-17T13:20:05.830Z,44.73
2023-02-17T13:22:32.449Z,44.56
2023-02-17T13:24:59.120Z,44.60
2023-02-17T13:27:25.835Z,44.60
2023-02-17T13:29:52.477Z,44.63
2023-02-17T13:32:19.107Z,44.64
2023-02-17T13:34:45.755Z,44.64
2023-02-17T13:37:12.372Z,44.66
2023-02-17T13:39:39.019Z,44.61
2023-02-17T13:42:05.695Z,44.65
2023-02-17T13:44:32.351Z,44.64
2023-02-17T13:46:59.006Z,44.63
2023-02-17T13:49:25.849Z,44.73
2023-02-17T13:51:52.465Z,44.61
2023-02-17T13:54:19.106Z,44.71
2023-02-17T13:56:45.732Z,44.63
2023-02-17T13:59:12.375Z,44.69
2023-02-17T14:01:39.055Z,44.74
2023-02-17T14:04:05.945Z,44.67
2023-02-17T14:06:32.569Z,44.64
2023-02-17T14:08:59.213Z,44.64
2023-02-17T14:11:25.862Z,44.66
2023-02-17T14:13:52.492Z,44.60
2023-02-17T14:16:19.152Z,44.63
2023-02-17T14:18:45.803Z,44.69
2023-02-17T14:21:12.582Z,44.63
2023-02-17T14:23:39.268Z,44.66
2023-02-17T14:26:06.352Z,44.65
2023-02-17T14:28:33.149Z,44.57
2023-02-17T14:30:59.974Z,44.68
2023-02-17T14:33:26.667Z,44.64
2023-02-17T14:35:53.318Z,44.71
2023-02-17T14:38:19.988Z,44.66
2023-02-17T14:40:46.618Z,44.65
2023-02-17T14:43:13.230Z,44.72
2023-02-17T14:45:39.857Z,44.69
2023-02-17T14:48:06.497Z,44.72
2023-02-17T14:50:33.139Z,44.67
2023-02-17T14:52:59.976Z,44.73
2023-02-17T14:55:26.633Z,44.67
2023-02-17T14:57:53.280Z,44.74
2023-02-17T15:00:19.934Z,44.72
2023-02-17T15:02:46.575Z,44.64
2023-02-17T15:05:13.242Z,44.73
2023-02-17T15:07:39.957Z,44.66
2023-02-17T15:10:06.909Z,44.69
2023-02-17T15:12:33.549Z,44.71
2023-02-17T15:15:00.168Z,44.74
2023-02-17T15:17:26.802Z,44.77
2023-02-17T15:19:53.453Z,44.76
2023-02-17T15:22:20.087Z,44.66
2023-02-17T15:24:46.712Z,44.84
2023-02-17T15:27:13.353Z,44.71
2023-02-17T15:29:40.000Z,44.77
2023-02-17T15:32:06.708Z,44.83
2023-02-17T15:34:33.375Z,44.81
2023-02-17T15:37:00.001Z,44.81
2023-02-17T15:39:26.637Z,44.79
2023-02-17T15:41:53.268Z,44.83
2023-02-17T15:44:19.902Z,44.78
2023-02-17T15:46:46.564Z,44.78
2023-02-17T15:49:13.216Z,44.83
2023-02-17T15:51:39.850Z,44.75
2023-02-17T15:54:06.474Z,44.83
2023-02-17T15:56:33.096Z,44.79
2023-02-17T15:58:59.958Z,44.85
2023-02-17T16:01:26.612Z,44.81
2023-02-17T16:03:53.228Z,44.87
2023-02-17T16:06:19.872Z,44.89
2023-02-17T16:08:46.489Z,44.86
2023-02-17T16:11:13.128Z,44.89
2023-02-17T16:13:39.754Z,44.87
2023-02-17T16:16:06.608Z,44.94
2023-02-17T16:18:33.380Z,44.91
2023-02-17T16:21:00.236Z,44.90
2023-02-17T16:23:26.892Z,44.97
2023-02-17T16:25:53.504Z,44.89
2023-02-17T16:28:20.121Z,44.90
2023-02-17T16:30:46.753Z,44.82
2023-02-17T16:33:13.384Z,44.91
2023-02-17T16:35:40.013Z,44.87
2023-02-17T16:38:06.846Z,44.90
2023-02-17T16:40:33.508Z,44.94
2023-02-17T16:43:00.162Z,44.95
2023-02-17T16:45:26.829Z,44.97
2023-02-17T16:47:53.487Z,45.09
2023-02-17T16:50:20.121Z,44.99
2023-02-17T16:52:46.738Z,45.01
2023-02-17T16:55:13.367Z,45.04
2023-02-17T16:57:39.923Z,45.10
2023-02-17T17:00:06.836Z,45.08
2023-02-17T17:02:33.486Z,45.14
2023-02-17T17:05:00.260Z,45.23
2023-02-17T17:07:26.920Z,45.16
2023-02-17T17:10:15.353Z,45.23
2023-02-17T17:12:40.177Z,45.21
2023-02-17T17:15:06.788Z,45.20
2023-02-17T17:17:33.417Z,45.20
2023-02-17T17:20:00.097Z,45.16
2023-02-17T17:22:26.772Z,45.12
2023-02-17T17:24:53.404Z,45.14
2023-02-17T17:27:20.029Z,45.23
2023-02-17T17:29:46.659Z,45.15
2023-02-17T17:32:13.351Z,45.22
2023-02-17T17:34:40.229Z,45.15
2023-02-17T17:37:06.851Z,45.23
2023-02-17T17:39:33.477Z,45.28
2023-02-17T17:42:00.119Z,45.22
2023-02-17T17:44:26.752Z,45.28
2023-02-17T17:46:53.385Z,45.23
2023-02-17T17:49:20.023Z,45.28
2023-02-17T17:51:46.877Z,45.28
2023-02-17T17:54:13.511Z,45.29
2023-02-17T17:56:40.260Z,45.22
2023-02-17T17:59:06.902Z,45.12
2023-02-17T18:01:33.602Z,45.34
2023-02-17T18:04:00.298Z,45.38
2023-02-17T18:06:26.948Z,45.26
2023-02-17T18:08:53.802Z,45.38
2023-02-17T18:11:20.413Z,45.26
2023-02-17T18:13:47.054Z,45.31
2023-02-17T18:16:13.737Z,45.37
2023-02-17T18:18:40.394Z,45.43
2023-02-17T18:21:07.230Z,45.44
2023-02-17T18:23:33.864Z,45.42
2023-02-17T18:26:00.469Z,45.46
2023-02-17T18:28:27.086Z,45.36
2023-02-17T18:30:54.011Z,45.50
2023-02-17T18:33:20.658Z,45.37
2023-02-17T18:35:47.521Z,45.41
2023-02-17T18:38:14.351Z,45.43
2023-02-17T18:40:41.036Z,45.39
2023-02-17T18:43:07.651Z,45.46
2023-02-17T18:45:34.280Z,45.36
2023-02-17T18:48:00.906Z,45.43
2023-02-17T18:50:27.552Z,45.39
2023-02-17T18:52:54.208Z,45.48
2023-02-17T18:55:20.832Z,45.45
2023-02-17T18:57:47.467Z,45.39
2023-02-17T19:00:14.616Z,45.44
2023-02-17T19:02:41.409Z,45.45
2023-02-17T19:05:08.262Z,45.52
2023-02-17T19:07:34.876Z,45.48
2023-02-17T19:10:01.488Z,45.56
2023-02-17T19:12:28.340Z,45.60
2023-02-17T19:14:54.976Z,45.78
2023-02-17T19:17:21.588Z,45.67
2023-02-17T19:19:48.458Z,45.62
2023-02-17T19:22:15.087Z,45.80
2023-02-17T19:24:41.929Z,45.89
2023-02-17T19:27:08.552Z,45.87
2023-02-17T19:29:35.204Z,45.98
2023-02-17T19:32:02.350Z,45.85
2023-02-17T19:34:29.051Z,45.93
2023-02-17T19:36:55.878Z,45.87
2023-02-17T19:39:22.502Z,45.90
2023-02-17T19:41:49.137Z,45.96
2023-02-17T19:44:15.986Z,45.96
2023-02-17T19:46:42.634Z,46.13
2023-02-17T19:49:09.282Z,45.85
2023-02-17T19:51:35.924Z,46.00
2023-02-17T19:54:02.553Z,45.97
2023-02-17T19:56:29.236Z,46.02
2023-02-17T19:58:56.073Z,46.12
2023-02-17T20:01:22.735Z,46.07
2023-02-17T20:03:49.631Z,46.08
2023-02-17T20:06:16.264Z,45.91
2023-02-17T20:08:42.900Z,46.00
2023-02-17T20:11:09.551Z,45.97
2023-02-17T20:13:45.325Z,46.15
2023-02-17T20:16:12.998Z,45.95
2023-02-17T20:18:39.727Z,45.97
2023-02-17T20:21:06.341Z,45.98
2023-02-17T20:23:32.949Z,45.92
2023-02-17T20:25:59.780Z,46.01
2023-02-17T20:28:26.396Z,45.88
2023-02-17T20:30:53.046Z,45.98
2023-02-17T20:33:19.685Z,45.89
2023-02-17T20:35:46.304Z,46.05
2023-02-17T20:38:12.940Z,45.98
2023-02-17T20:40:39.548Z,45.99
2023-02-17T20:43:06.168Z,45.95
2023-02-17T20:45:32.847Z,45.93
2023-02-17T20:47:59.475Z,45.99
2023-02-17T20:50:26.099Z,45.83
2023-02-17T20:52:52.721Z,45.94
2023-02-17T20:55:19.341Z,45.91
2023-02-17T20:57:46.087Z,45.95
2023-02-17T21:00:12.755Z,45.89
2023-02-17T21:02:39.436Z,45.96
2023-02-17T21:05:06.088Z,45.97
2023-02-17T21:07:32.701Z,45.91
2023-02-17T21:09:59.350Z,45.85
2023-02-17T21:12:25.977Z,45.89
2023-02-17T21:14:52.579Z,46.03
2023-02-17T21:17:19.180Z,45.91
2023-02-17T21:19:46.238Z,45.94
2023-02-17T21:22:12.880Z,46.05
2023-02-17T21:24:39.736Z,46.00
2023-02-17T21:27:06.384Z,46.11
2023-02-17T21:29:33.049Z,46.00
2023-02-17T21:31:59.812Z,46.09
2023-02-17T21:34:26.514Z,46.03
2023-02-17T21:36:53.144Z,45.93
2023-02-17T21:39:19.772Z,46.00
2023-02-17T21:41:46.393Z,46.02
2023-02-17T21:44:13.014Z,46.05
2023-02-17T21:46:39.866Z,46.16
2023-02-17T21:49:06.489Z,46.24
2023-02-17T21:51:33.311Z,46.06
2023-02-17T21:53:59.958Z,46.02
2023-02-17T21:56:26.604Z,46.10
2023-02-17T21:58:53.434Z,46.05
2023-02-17T22:01:20.052Z,45.98
2023-02-17T22:03:46.706Z,45.98
2023-02-17T22:06:13.311Z,46.13
2023-02-17T22:08:39.946Z,46.13
2023-02-17T22:11:06.577Z,46.17
2023-02-17T22:13:33.426Z,46.15
2023-02-17T22:16:00.045Z,46.16
2023-02-17T22:18:26.917Z,46.08
2023-02-17T22:20:53.533Z,46.03
2023-02-17T22:23:20.204Z,46.11
2023-02-17T22:25:46.868Z,46.09
2023-02-17T22:28:14.515Z,46.09
2023-02-17T22:30:41.240Z,46.12
2023-02-17T22:33:07.900Z,46.18
2023-02-17T22:35:34.529Z,46.15
2023-02-17T22:38:01.162Z,46.16
2023-02-17T22:40:28.006Z,46.12
2023-02-17T22:42:54.610Z,46.11
2023-02-17T22:45:21.220Z,46.16
2023-02-17T22:47:47.860Z,46.11
2023-02-17T22:50:14.743Z,46.17
2023-02-17T22:52:41.372Z,46.10
2023-02-17T22:55:08.008Z,46.17
2023-02-17T22:57:34.645Z,46.09
2023-02-17T23:00:01.284Z,46.16
2023-02-17T23:02:28.498Z,46.16
2023-02-17T23:04:55.111Z,46.11
2023-02-17T23:07:21.721Z,46.19
2023-02-17T23:09:48.331Z,46.10
2023-02-17T23:12:14.955Z,46.26
2023-02-17T23:14:41.575Z,46.24
2023-02-17T23:17:08.175Z,46.31
2023-02-17T23:19:35.008Z,46.30
2023-02-17T23:22:01.654Z,46.32
2023-02-17T23:24:28.309Z,46.33
2023-02-17T23:26:54.975Z,46.29
2023-02-17T23:29:21.608Z,46.36
2023-02-17T23:31:48.230Z,46.17
2023-02-17T23:34:14.844Z,46.23
2023-02-17T23:36:41.455Z,46.28
2023-02-17T23:39:08.068Z,46.30
2023-02-17T23:41:34.670Z,46.23
2023-02-17T23:44:01.512Z,46.38
2023-02-17T23:46:28.199Z,46.26
2023-02-17T23:48:54.852Z,46.35
2023-02-17T23:51:21.509Z,46.30
2023-02-17T23:53:48.156Z,46.35
2023-02-17T23:56:14.813Z,46.40
2023-02-17T23:58:41.466Z,46.32
